sensor_id;sensor_type;location;lat;lon;timestamp;pressure;altitude;pressure_sealevel;temperature
18219;BMP180;9234;49.344;11.120;2023-05-07T00:01:40;97530.00;;;12.20
18219;BMP180;9234;49.344;11.120;2023-05-07T00:04:08;97516.00;;;12.20
18219;BMP180;9234;49.344;11.120;2023-05-07T00:06:39;97520.00;;;12.20
18219;BMP180;9234;49.344;11.120;2023-05-07T00:09:07;97524.00;;;12.10
18219;BMP180;9234;49.344;11.120;2023-05-07T00:11:35;97520.00;;;12.20
18219;BMP180;9234;49.344;11.120;2023-05-07T00:14:04;97513.00;;;12.20
18219;BMP180;9234;49.344;11.120;2023-05-07T00:16:32;97521.00;;;12.20
18219;BMP180;9234;49.344;11.120;2023-05-07T00:19:00;97533.00;;;12.20
18219;BMP180;9234;49.344;11.120;2023-05-07T00:21:28;97516.00;;;12.30
18219;BMP180;9234;49.344;11.120;2023-05-07T00:23:58;97532.00;;;12.30
18219;BMP180;9234;49.344;11.120;2023-05-07T00:26:27;97518.00;;;12.30
18219;BMP180;9234;49.344;11.120;2023-05-07T00:28:55;97533.00;;;12.40
18219;BMP180;9234;49.344;11.120;2023-05-07T00:31:24;97512.00;;;12.40
18219;BMP180;9234;49.344;11.120;2023-05-07T00:33:52;97517.00;;;12.50
18219;BMP180;9234;49.344;11.120;2023-05-07T00:36:20;97534.00;;;12.50
18219;BMP180;9234;49.344;11.120;2023-05-07T00:38:48;97537.00;;;12.50
18219;BMP180;9234;49.344;11.120;2023-05-07T00:41:18;97526.00;;;12.50
18219;BMP180;9234;49.344;11.120;2023-05-07T00:43:46;97526.00;;;12.50
18219;BMP180;9234;49.344;11.120;2023-05-07T00:46:15;97527.00;;;12.50
18219;BMP180;9234;49.344;11.120;2023-05-07T00:48:44;97534.00;;;12.50
18219;BMP180;9234;49.344;11.120;2023-05-07T00:51:13;97531.00;;;12.50
18219;BMP180;9234;49.344;11.120;2023-05-07T00:53:42;97525.00;;;12.60
18219;BMP180;9234;49.344;11.120;2023-05-07T00:56:11;97519.00;;;12.50
18219;BMP180;9234;49.344;11.120;2023-05-07T00:58:41;97510.00;;;12.50
18219;BMP180;9234;49.344;11.120;2023-05-07T01:01:10;97522.00;;;12.60
18219;BMP180;9234;49.344;11.120;2023-05-07T01:03:38;97515.00;;;12.60
18219;BMP180;9234;49.344;11.120;2023-05-07T01:06:08;97513.00;;;12.60
18219;BMP180;9234;49.344;11.120;2023-05-07T01:08:41;97497.00;;;12.60
18219;BMP180;9234;49.344;11.120;2023-05-07T01:11:11;97510.00;;;12.70
18219;BMP180;9234;49.344;11.120;2023-05-07T01:13:41;97498.00;;;12.70
18219;BMP180;9234;49.344;11.120;2023-05-07T01:16:10;97516.00;;;12.70
18219;BMP180;9234;49.344;11.120;2023-05-07T01:18:38;97495.00;;;12.70
18219;BMP180;9234;49.344;11.120;2023-05-07T01:21:10;97498.00;;;12.70
18219;BMP180;9234;49.344;11.120;2023-05-07T01:23:41;97501.00;;;12.70
18219;BMP180;9234;49.344;11.120;2023-05-07T01:26:09;97498.00;;;12.70
18219;BMP180;9234;49.344;11.120;2023-05-07T01:28:37;97505.00;;;12.70
18219;BMP180;9234;49.344;11.120;2023-05-07T01:31:08;97490.00;;;12.70
18219;BMP180;9234;49.344;11.120;2023-05-07T01:33:40;97493.00;;;12.80
18219;BMP180;9234;49.344;11.120;2023-05-07T01:36:10;97504.00;;;12.80
18219;BMP180;9234;49.344;11.120;2023-05-07T01:38:42;97489.00;;;12.80
18219;BMP180;9234;49.344;11.120;2023-05-07T01:41:11;97497.00;;;12.80
18219;BMP180;9234;49.344;11.120;2023-05-07T01:43:41;97495.00;;;12.90
18219;BMP180;9234;49.344;11.120;2023-05-07T01:46:10;97478.00;;;12.90
18219;BMP180;9234;49.344;11.120;2023-05-07T01:48:39;97495.00;;;12.90
18219;BMP180;9234;49.344;11.120;2023-05-07T01:51:08;97495.00;;;12.90
18219;BMP180;9234;49.344;11.120;2023-05-07T01:53:37;97489.00;;;12.90
18219;BMP180;9234;49.344;11.120;2023-05-07T01:56:07;97496.00;;;12.90
18219;BMP180;9234;49.344;11.120;2023-05-07T01:58:38;97485.00;;;12.90
18219;BMP180;9234;49.344;11.120;2023-05-07T02:01:07;97493.00;;;12.90
18219;BMP180;9234;49.344;11.120;2023-05-07T02:03:36;97499.00;;;12.90
18219;BMP180;9234;49.344;11.120;2023-05-07T02:06:11;97502.00;;;12.80
18219;BMP180;9234;49.344;11.120;2023-05-07T02:08:40;97505.00;;;12.80
18219;BMP180;9234;49.344;11.120;2023-05-07T02:11:10;97501.00;;;12.80
18219;BMP180;9234;49.344;11.120;2023-05-07T02:13:38;97493.00;;;12.70
18219;BMP180;9234;49.344;11.120;2023-05-07T02:16:07;97495.00;;;12.70
18219;BMP180;9234;49.344;11.120;2023-05-07T02:18:35;97513.00;;;12.70
18219;BMP180;9234;49.344;11.120;2023-05-07T02:21:03;97501.00;;;12.60
18219;BMP180;9234;49.344;11.120;2023-05-07T02:23:32;97488.00;;;12.60
18219;BMP180;9234;49.344;11.120;2023-05-07T02:26:00;97485.00;;;12.60
18219;BMP180;9234;49.344;11.120;2023-05-07T02:28:30;97495.00;;;12.50
18219;BMP180;9234;49.344;11.120;2023-05-07T02:31:03;97491.00;;;12.40
18219;BMP180;9234;49.344;11.120;2023-05-07T02:33:32;97496.00;;;12.40
18219;BMP180;9234;49.344;11.120;2023-05-07T02:36:07;97492.00;;;12.40
18219;BMP180;9234;49.344;11.120;2023-05-07T02:38:40;97477.00;;;12.30
18219;BMP180;9234;49.344;11.120;2023-05-07T02:41:09;97477.00;;;12.30
18219;BMP180;9234;49.344;11.120;2023-05-07T02:43:39;97477.00;;;12.20
18219;BMP180;9234;49.344;11.120;2023-05-07T02:46:08;97485.00;;;12.20
18219;BMP180;9234;49.344;11.120;2023-05-07T02:48:41;97491.00;;;12.10
18219;BMP180;9234;49.344;11.120;2023-05-07T02:51:09;97490.00;;;12.10
18219;BMP180;9234;49.344;11.120;2023-05-07T02:53:40;97490.00;;;12.10
18219;BMP180;9234;49.344;11.120;2023-05-07T02:56:08;97491.00;;;12.10
18219;BMP180;9234;49.344;11.120;2023-05-07T02:58:38;97485.00;;;12.00
18219;BMP180;9234;49.344;11.120;2023-05-07T03:01:07;97478.00;;;12.00
18219;BMP180;9234;49.344;11.120;2023-05-07T03:03:52;97489.00;;;12.00
18219;BMP180;9234;49.344;11.120;2023-05-07T03:06:20;97479.00;;;12.00
18219;BMP180;9234;49.344;11.120;2023-05-07T03:08:48;97483.00;;;11.90
18219;BMP180;9234;49.344;11.120;2023-05-07T03:11:17;97477.00;;;11.90
18219;BMP180;9234;49.344;11.120;2023-05-07T03:13:46;97487.00;;;11.90
18219;BMP180;9234;49.344;11.120;2023-05-07T03:16:17;97480.00;;;11.90
18219;BMP180;9234;49.344;11.120;2023-05-07T03:18:46;97494.00;;;11.90
18219;BMP180;9234;49.344;11.120;2023-05-07T03:21:14;97484.00;;;11.90
18219;BMP180;9234;49.344;11.120;2023-05-07T03:23:42;97479.00;;;11.80
18219;BMP180;9234;49.344;11.120;2023-05-07T03:26:10;97494.00;;;11.80
18219;BMP180;9234;49.344;11.120;2023-05-07T03:28:39;97490.00;;;11.90
18219;BMP180;9234;49.344;11.120;2023-05-07T03:31:12;97484.00;;;11.90
18219;BMP180;9234;49.344;11.120;2023-05-07T03:33:51;97483.00;;;11.90
18219;BMP180;9234;49.344;11.120;2023-05-07T03:36:20;97482.00;;;11.90
18219;BMP180;9234;49.344;11.120;2023-05-07T03:38:49;97488.00;;;11.90
18219;BMP180;9234;49.344;11.120;2023-05-07T03:41:20;97490.00;;;11.90
18219;BMP180;9234;49.344;11.120;2023-05-07T03:43:48;97482.00;;;11.90
18219;BMP180;9234;49.344;11.120;2023-05-07T03:46:18;97484.00;;;11.90
18219;BMP180;9234;49.344;11.120;2023-05-07T03:48:46;97488.00;;;11.90
18219;BMP180;9234;49.344;11.120;2023-05-07T03:51:16;97485.00;;;11.90
18219;BMP180;9234;49.344;11.120;2023-05-07T03:53:44;97490.00;;;11.90
18219;BMP180;9234;49.344;11.120;2023-05-07T03:56:12;97501.00;;;11.90
18219;BMP180;9234;49.344;11.120;2023-05-07T03:58:41;97497.00;;;11.90
18219;BMP180;9234;49.344;11.120;2023-05-07T04:01:11;97496.00;;;12.00
18219;BMP180;9234;49.344;11.120;2023-05-07T04:03:40;97502.00;;;12.00
18219;BMP180;9234;49.344;11.120;2023-05-07T04:06:09;97504.00;;;12.00
18219;BMP180;9234;49.344;11.120;2023-05-07T04:08:37;97504.00;;;12.00
18219;BMP180;9234;49.344;11.120;2023-05-07T04:11:07;97504.00;;;12.00
18219;BMP180;9234;49.344;11.120;2023-05-07T04:13:36;97516.00;;;12.00
18219;BMP180;9234;49.344;11.120;2023-05-07T04:16:07;97513.00;;;12.00
18219;BMP180;9234;49.344;11.120;2023-05-07T04:18:37;97522.00;;;12.00
18219;BMP180;9234;49.344;11.120;2023-05-07T04:21:14;97518.00;;;12.00
18219;BMP180;9234;49.344;11.120;2023-05-07T04:23:43;97518.00;;;12.00
18219;BMP180;9234;49.344;11.120;2023-05-07T04:26:13;97518.00;;;12.00
18219;BMP180;9234;49.344;11.120;2023-05-07T04:28:44;97515.00;;;12.00
18219;BMP180;9234;49.344;11.120;2023-05-07T04:31:12;97525.00;;;12.10
18219;BMP180;9234;49.344;11.120;2023-05-07T04:33:40;97522.00;;;12.10
18219;BMP180;9234;49.344;11.120;2023-05-07T04:36:13;97521.00;;;12.10
18219;BMP180;9234;49.344;11.120;2023-05-07T04:38:50;97535.00;;;12.20
18219;BMP180;9234;49.344;11.120;2023-05-07T04:41:19;97529.00;;;12.20
18219;BMP180;9234;49.344;11.120;2023-05-07T04:43:48;97541.00;;;12.30
18219;BMP180;9234;49.344;11.120;2023-05-07T04:46:19;97541.00;;;12.40
18219;BMP180;9234;49.344;11.120;2023-05-07T04:48:49;97536.00;;;12.40
18219;BMP180;9234;49.344;11.120;2023-05-07T04:51:18;97538.00;;;12.50
18219;BMP180;9234;49.344;11.120;2023-05-07T04:53:48;97531.00;;;12.50
18219;BMP180;9234;49.344;11.120;2023-05-07T04:56:16;97539.00;;;12.60
18219;BMP180;9234;49.344;11.120;2023-05-07T04:58:46;97535.00;;;12.70
18219;BMP180;9234;49.344;11.120;2023-05-07T05:01:17;97541.00;;;12.80
18219;BMP180;9234;49.344;11.120;2023-05-07T05:03:45;97539.00;;;12.90
18219;BMP180;9234;49.344;11.120;2023-05-07T05:06:14;97547.00;;;12.90
18219;BMP180;9234;49.344;11.120;2023-05-07T05:08:43;97525.00;;;13.00
18219;BMP180;9234;49.344;11.120;2023-05-07T05:11:12;97532.00;;;13.10
18219;BMP180;9234;49.344;11.120;2023-05-07T05:13:40;97530.00;;;13.20
18219;BMP180;9234;49.344;11.120;2023-05-07T05:16:13;97538.00;;;13.30
18219;BMP180;9234;49.344;11.120;2023-05-07T05:18:42;97531.00;;;13.50
18219;BMP180;9234;49.344;11.120;2023-05-07T05:21:12;97546.00;;;13.60
18219;BMP180;9234;49.344;11.120;2023-05-07T05:23:45;97542.00;;;13.70
18219;BMP180;9234;49.344;11.120;2023-05-07T05:26:17;97541.00;;;13.90
18219;BMP180;9234;49.344;11.120;2023-05-07T05:28:45;97546.00;;;14.00
18219;BMP180;9234;49.344;11.120;2023-05-07T05:31:16;97549.00;;;14.10
18219;BMP180;9234;49.344;11.120;2023-05-07T05:33:45;97538.00;;;14.20
18219;BMP180;9234;49.344;11.120;2023-05-07T05:36:13;97548.00;;;14.40
18219;BMP180;9234;49.344;11.120;2023-05-07T05:38:44;97553.00;;;14.50
18219;BMP180;9234;49.344;11.120;2023-05-07T05:41:13;97546.00;;;14.60
18219;BMP180;9234;49.344;11.120;2023-05-07T05:43:42;97555.00;;;14.70
18219;BMP180;9234;49.344;11.120;2023-05-07T05:46:10;97555.00;;;14.80
18219;BMP180;9234;49.344;11.120;2023-05-07T05:48:39;97543.00;;;14.90
18219;BMP180;9234;49.344;11.120;2023-05-07T05:51:08;97555.00;;;15.00
18219;BMP180;9234;49.344;11.120;2023-05-07T05:53:36;97569.00;;;15.20
18219;BMP180;9234;49.344;11.120;2023-05-07T05:56:07;97557.00;;;15.30
18219;BMP180;9234;49.344;11.120;2023-05-07T05:58:38;97567.00;;;15.40
18219;BMP180;9234;49.344;11.120;2023-05-07T06:01:07;97555.00;;;15.50
18219;BMP180;9234;49.344;11.120;2023-05-07T06:03:37;97563.00;;;15.60
18219;BMP180;9234;49.344;11.120;2023-05-07T06:06:11;97562.00;;;15.70
18219;BMP180;9234;49.344;11.120;2023-05-07T06:08:42;97566.00;;;15.80
18219;BMP180;9234;49.344;11.120;2023-05-07T06:11:14;97567.00;;;15.90
18219;BMP180;9234;49.344;11.120;2023-05-07T06:13:45;97561.00;;;16.00
18219;BMP180;9234;49.344;11.120;2023-05-07T06:16:14;97566.00;;;16.10
18219;BMP180;9234;49.344;11.120;2023-05-07T06:18:43;97558.00;;;16.20
18219;BMP180;9234;49.344;11.120;2023-05-07T06:21:13;97558.00;;;16.30
18219;BMP180;9234;49.344;11.120;2023-05-07T06:23:42;97569.00;;;16.40
18219;BMP180;9234;49.344;11.120;2023-05-07T06:26:10;97572.00;;;16.40
18219;BMP180;9234;49.344;11.120;2023-05-07T06:28:42;97576.00;;;16.50
18219;BMP180;9234;49.344;11.120;2023-05-07T06:31:14;97572.00;;;16.70
18219;BMP180;9234;49.344;11.120;2023-05-07T06:33:47;97586.00;;;16.70
18219;BMP180;9234;49.344;11.120;2023-05-07T06:36:16;97574.00;;;16.80
18219;BMP180;9234;49.344;11.120;2023-05-07T06:38:46;97580.00;;;17.00
18219;BMP180;9234;49.344;11.120;2023-05-07T06:41:15;97584.00;;;17.10
18219;BMP180;9234;49.344;11.120;2023-05-07T06:43:45;97578.00;;;17.20
18219;BMP180;9234;49.344;11.120;2023-05-07T06:46:51;97580.00;;;17.30
18219;BMP180;9234;49.344;11.120;2023-05-07T06:49:20;97584.00;;;17.40
18219;BMP180;9234;49.344;11.120;2023-05-07T06:51:49;97586.00;;;17.60
18219;BMP180;9234;49.344;11.120;2023-05-07T06:54:18;97590.00;;;17.70
18219;BMP180;9234;49.344;11.120;2023-05-07T06:56:47;97588.00;;;17.80
18219;BMP180;9234;49.344;11.120;2023-05-07T06:59:17;97602.00;;;18.00
18219;BMP180;9234;49.344;11.120;2023-05-07T07:01:46;97600.00;;;18.30
18219;BMP180;9234;49.344;11.120;2023-05-07T07:04:15;97606.00;;;18.50
18219;BMP180;9234;49.344;11.120;2023-05-07T07:06:48;97602.00;;;18.80
18219;BMP180;9234;49.344;11.120;2023-05-07T07:09:16;97589.00;;;19.00
18219;BMP180;9234;49.344;11.120;2023-05-07T07:11:45;97591.00;;;19.20
18219;BMP180;9234;49.344;11.120;2023-05-07T07:14:13;97586.00;;;19.40
18219;BMP180;9234;49.344;11.120;2023-05-07T07:16:48;97591.00;;;19.50
18219;BMP180;9234;49.344;11.120;2023-05-07T07:19:18;97593.00;;;19.70
18219;BMP180;9234;49.344;11.120;2023-05-07T07:21:49;97601.00;;;19.70
18219;BMP180;9234;49.344;11.120;2023-05-07T07:24:17;97591.00;;;19.80
18219;BMP180;9234;49.344;11.120;2023-05-07T07:26:51;97588.00;;;19.90
18219;BMP180;9234;49.344;11.120;2023-05-07T07:29:23;97587.00;;;20.00
18219;BMP180;9234;49.344;11.120;2023-05-07T07:31:55;97581.00;;;20.00
18219;BMP180;9234;49.344;11.120;2023-05-07T07:34:24;97586.00;;;20.10
18219;BMP180;9234;49.344;11.120;2023-05-07T07:36:53;97584.00;;;20.10
18219;BMP180;9234;49.344;11.120;2023-05-07T07:39:21;97585.00;;;20.00
18219;BMP180;9234;49.344;11.120;2023-05-07T07:41:53;97593.00;;;20.00
18219;BMP180;9234;49.344;11.120;2023-05-07T07:44:21;97605.00;;;20.00
18219;BMP180;9234;49.344;11.120;2023-05-07T07:46:58;97600.00;;;20.00
18219;BMP180;9234;49.344;11.120;2023-05-07T07:49:28;97600.00;;;20.00
18219;BMP180;9234;49.344;11.120;2023-05-07T07:51:59;97595.00;;;20.10
18219;BMP180;9234;49.344;11.120;2023-05-07T07:54:28;97589.00;;;20.10
18219;BMP180;9234;49.344;11.120;2023-05-07T07:56:57;97611.00;;;20.20
18219;BMP180;9234;49.344;11.120;2023-05-07T07:59:26;97594.00;;;20.30
18219;BMP180;9234;49.344;11.120;2023-05-07T08:01:54;97592.00;;;20.40
18219;BMP180;9234;49.344;11.120;2023-05-07T08:04:27;97595.00;;;20.50
18219;BMP180;9234;49.344;11.120;2023-05-07T08:06:57;97596.00;;;20.70
18219;BMP180;9234;49.344;11.120;2023-05-07T08:09:25;97599.00;;;20.90
18219;BMP180;9234;49.344;11.120;2023-05-07T08:11:55;97593.00;;;21.00
18219;BMP180;9234;49.344;11.120;2023-05-07T08:14:24;97618.00;;;21.10
18219;BMP180;9234;49.344;11.120;2023-05-07T08:16:52;97614.00;;;21.30
18219;BMP180;9234;49.344;11.120;2023-05-07T08:19:21;97624.00;;;21.40
18219;BMP180;9234;49.344;11.120;2023-05-07T08:21:51;97610.00;;;21.50
18219;BMP180;9234;49.344;11.120;2023-05-07T08:24:21;97632.00;;;21.60
18219;BMP180;9234;49.344;11.120;2023-05-07T08:26:50;97618.00;;;21.90
18219;BMP180;9234;49.344;11.120;2023-05-07T08:29:19;97621.00;;;22.10
18219;BMP180;9234;49.344;11.120;2023-05-07T08:31:47;97617.00;;;22.30
18219;BMP180;9234;49.344;11.120;2023-05-07T08:34:15;97607.00;;;22.40
18219;BMP180;9234;49.344;11.120;2023-05-07T08:36:46;97608.00;;;22.50
18219;BMP180;9234;49.344;11.120;2023-05-07T08:39:19;97605.00;;;22.50
18219;BMP180;9234;49.344;11.120;2023-05-07T08:41:55;97613.00;;;22.40
18219;BMP180;9234;49.344;11.120;2023-05-07T08:44:27;97603.00;;;22.40
18219;BMP180;9234;49.344;11.120;2023-05-07T08:47:00;97623.00;;;22.40
18219;BMP180;9234;49.344;11.120;2023-05-07T08:49:31;97609.00;;;22.50
18219;BMP180;9234;49.344;11.120;2023-05-07T08:52:00;97615.00;;;22.60
18219;BMP180;9234;49.344;11.120;2023-05-07T08:54:31;97610.00;;;22.80
18219;BMP180;9234;49.344;11.120;2023-05-07T08:57:01;97610.00;;;23.00
18219;BMP180;9234;49.344;11.120;2023-05-07T08:59:30;97604.00;;;23.10
18219;BMP180;9234;49.344;11.120;2023-05-07T09:01:59;97606.00;;;23.40
18219;BMP180;9234;49.344;11.120;2023-05-07T09:04:27;97599.00;;;23.60
18219;BMP180;9234;49.344;11.120;2023-05-07T09:06:56;97601.00;;;23.70
18219;BMP180;9234;49.344;11.120;2023-05-07T09:09:33;97610.00;;;23.80
18219;BMP180;9234;49.344;11.120;2023-05-07T09:12:03;97596.00;;;24.00
18219;BMP180;9234;49.344;11.120;2023-05-07T09:14:33;97609.00;;;24.10
18219;BMP180;9234;49.344;11.120;2023-05-07T09:17:03;97608.00;;;24.00
18219;BMP180;9234;49.344;11.120;2023-05-07T09:19:31;97598.00;;;24.00
18219;BMP180;9234;49.344;11.120;2023-05-07T09:22:04;97595.00;;;24.10
18219;BMP180;9234;49.344;11.120;2023-05-07T09:24:48;97595.00;;;24.40
18219;BMP180;9234;49.344;11.120;2023-05-07T09:27:19;97596.00;;;24.30
18219;BMP180;9234;49.344;11.120;2023-05-07T09:29:47;97589.00;;;24.30
18219;BMP180;9234;49.344;11.120;2023-05-07T09:32:16;97591.00;;;24.30
18219;BMP180;9234;49.344;11.120;2023-05-07T09:34:45;97592.00;;;24.40
18219;BMP180;9234;49.344;11.120;2023-05-07T09:37:16;97586.00;;;24.40
18219;BMP180;9234;49.344;11.120;2023-05-07T09:39:49;97593.00;;;24.30
18219;BMP180;9234;49.344;11.120;2023-05-07T09:42:24;97587.00;;;24.20
18219;BMP180;9234;49.344;11.120;2023-05-07T09:44:56;97593.00;;;24.40
18219;BMP180;9234;49.344;11.120;2023-05-07T09:47:32;97600.00;;;24.70
18219;BMP180;9234;49.344;11.120;2023-05-07T09:50:08;97598.00;;;25.00
18219;BMP180;9234;49.344;11.120;2023-05-07T09:52:40;97614.00;;;25.30
18219;BMP180;9234;49.344;11.120;2023-05-07T09:55:12;97595.00;;;25.50
18219;BMP180;9234;49.344;11.120;2023-05-07T09:57:43;97607.00;;;25.50
18219;BMP180;9234;49.344;11.120;2023-05-07T10:00:14;97596.00;;;25.60
18219;BMP180;9234;49.344;11.120;2023-05-07T10:02:51;97603.00;;;25.70
18219;BMP180;9234;49.344;11.120;2023-05-07T10:05:33;97602.00;;;25.90
18219;BMP180;9234;49.344;11.120;2023-05-07T10:08:01;97593.00;;;26.00
18219;BMP180;9234;49.344;11.120;2023-05-07T10:10:34;97592.00;;;26.20
18219;BMP180;9234;49.344;11.120;2023-05-07T10:13:05;97596.00;;;26.30
18219;BMP180;9234;49.344;11.120;2023-05-07T10:15:41;97603.00;;;26.50
18219;BMP180;9234;49.344;11.120;2023-05-07T10:18:11;97599.00;;;26.70
18219;BMP180;9234;49.344;11.120;2023-05-07T10:20:43;97598.00;;;26.90
18219;BMP180;9234;49.344;11.120;2023-05-07T10:23:17;97596.00;;;27.10
18219;BMP180;9234;49.344;11.120;2023-05-07T10:25:49;97597.00;;;27.30
18219;BMP180;9234;49.344;11.120;2023-05-07T10:28:24;97596.00;;;27.50
18219;BMP180;9234;49.344;11.120;2023-05-07T10:31:07;97600.00;;;27.70
18219;BMP180;9234;49.344;11.120;2023-05-07T10:33:46;97601.00;;;27.60
18219;BMP180;9234;49.344;11.120;2023-05-07T10:36:17;97596.00;;;27.50
18219;BMP180;9234;49.344;11.120;2023-05-07T10:38:46;97588.00;;;27.60
18219;BMP180;9234;49.344;11.120;2023-05-07T10:41:17;97596.00;;;27.70
18219;BMP180;9234;49.344;11.120;2023-05-07T10:43:46;97596.00;;;27.90
18219;BMP180;9234;49.344;11.120;2023-05-07T10:46:25;97600.00;;;28.20
18219;BMP180;9234;49.344;11.120;2023-05-07T10:49:12;97592.00;;;28.50
18219;BMP180;9234;49.344;11.120;2023-05-07T10:52:13;97589.00;;;28.90
18219;BMP180;9234;49.344;11.120;2023-05-07T10:55:20;97584.00;;;29.00
18219;BMP180;9234;49.344;11.120;2023-05-07T10:58:26;97588.00;;;29.00
18219;BMP180;9234;49.344;11.120;2023-05-07T11:01:50;97579.00;;;28.90
18219;BMP180;9234;49.344;11.120;2023-05-07T11:04:25;97575.00;;;29.00
18219;BMP180;9234;49.344;11.120;2023-05-07T11:07:29;97573.00;;;29.00
18219;BMP180;9234;49.344;11.120;2023-05-07T11:10:09;97578.00;;;28.90
18219;BMP180;9234;49.344;11.120;2023-05-07T11:12:55;97573.00;;;29.10
18219;BMP180;9234;49.344;11.120;2023-05-07T11:15:44;97567.00;;;29.20
18219;BMP180;9234;49.344;11.120;2023-05-07T11:18:22;97562.00;;;29.20
18219;BMP180;9234;49.344;11.120;2023-05-07T11:20:55;97556.00;;;29.40
18219;BMP180;9234;49.344;11.120;2023-05-07T11:24:00;97561.00;;;29.50
18219;BMP180;9234;49.344;11.120;2023-05-07T11:26:47;97565.00;;;29.60
18219;BMP180;9234;49.344;11.120;2023-05-07T11:29:17;97552.00;;;29.70
18219;BMP180;9234;49.344;11.120;2023-05-07T11:31:55;97548.00;;;29.90
18219;BMP180;9234;49.344;11.120;2023-05-07T11:34:29;97558.00;;;30.10
18219;BMP180;9234;49.344;11.120;2023-05-07T11:36:59;97551.00;;;30.40
18219;BMP180;9234;49.344;11.120;2023-05-07T11:39:46;97558.00;;;30.60
18219;BMP180;9234;49.344;11.120;2023-05-07T11:42:28;97555.00;;;30.50
18219;BMP180;9234;49.344;11.120;2023-05-07T11:44:57;97548.00;;;30.40
18219;BMP180;9234;49.344;11.120;2023-05-07T11:47:30;97555.00;;;30.50
18219;BMP180;9234;49.344;11.120;2023-05-07T11:50:05;97549.00;;;30.80
18219;BMP180;9234;49.344;11.120;2023-05-07T11:52:35;97549.00;;;31.00
18219;BMP180;9234;49.344;11.120;2023-05-07T11:55:04;97556.00;;;31.30
18219;BMP180;9234;49.344;11.120;2023-05-07T11:57:33;97550.00;;;31.60
18219;BMP180;9234;49.344;11.120;2023-05-07T12:00:03;97544.00;;;31.80
18219;BMP180;9234;49.344;11.120;2023-05-07T12:02:42;97549.00;;;32.10
18219;BMP180;9234;49.344;11.120;2023-05-07T12:05:10;97554.00;;;32.20
18219;BMP180;9234;49.344;11.120;2023-05-07T12:07:40;97551.00;;;32.40
18219;BMP180;9234;49.344;11.120;2023-05-07T12:10:11;97550.00;;;32.50
18219;BMP180;9234;49.344;11.120;2023-05-07T12:12:39;97552.00;;;32.70
18219;BMP180;9234;49.344;11.120;2023-05-07T12:15:09;97546.00;;;32.80
18219;BMP180;9234;49.344;11.120;2023-05-07T12:17:38;97554.00;;;33.00
18219;BMP180;9234;49.344;11.120;2023-05-07T12:20:10;97548.00;;;33.00
18219;BMP180;9234;49.344;11.120;2023-05-07T12:22:38;97548.00;;;33.00
18219;BMP180;9234;49.344;11.120;2023-05-07T12:25:08;97558.00;;;32.70
18219;BMP180;9234;49.344;11.120;2023-05-07T12:27:37;97543.00;;;32.30
18219;BMP180;9234;49.344;11.120;2023-05-07T12:30:10;97550.00;;;31.90
18219;BMP180;9234;49.344;11.120;2023-05-07T12:32:39;97552.00;;;31.50
18219;BMP180;9234;49.344;11.120;2023-05-07T12:35:09;97529.00;;;31.30
18219;BMP180;9234;49.344;11.120;2023-05-07T12:37:38;97546.00;;;31.60
18219;BMP180;9234;49.344;11.120;2023-05-07T12:40:09;97535.00;;;32.40
18219;BMP180;9234;49.344;11.120;2023-05-07T12:42:40;97539.00;;;33.30
18219;BMP180;9234;49.344;11.120;2023-05-07T12:45:10;97543.00;;;34.20
18219;BMP180;9234;49.344;11.120;2023-05-07T12:47:39;97542.00;;;34.40
18219;BMP180;9234;49.344;11.120;2023-05-07T12:50:09;97537.00;;;34.60
18219;BMP180;9234;49.344;11.120;2023-05-07T12:52:38;97543.00;;;34.70
18219;BMP180;9234;49.344;11.120;2023-05-07T12:55:09;97540.00;;;34.70
18219;BMP180;9234;49.344;11.120;2023-05-07T12:57:41;97544.00;;;34.90
18219;BMP180;9234;49.344;11.120;2023-05-07T13:00:11;97538.00;;;35.40
18219;BMP180;9234;49.344;11.120;2023-05-07T13:02:42;97535.00;;;35.50
18219;BMP180;9234;49.344;11.120;2023-05-07T13:05:13;97538.00;;;34.70
18219;BMP180;9234;49.344;11.120;2023-05-07T13:07:52;97530.00;;;34.10
18219;BMP180;9234;49.344;11.120;2023-05-07T13:10:22;97526.00;;;33.50
18219;BMP180;9234;49.344;11.120;2023-05-07T13:12:50;97530.00;;;32.90
18219;BMP180;9234;49.344;11.120;2023-05-07T13:15:20;97521.00;;;32.60
18219;BMP180;9234;49.344;11.120;2023-05-07T13:17:48;97521.00;;;32.20
18219;BMP180;9234;49.344;11.120;2023-05-07T13:20:18;97533.00;;;31.90
18219;BMP180;9234;49.344;11.120;2023-05-07T13:22:47;97516.00;;;31.50
18219;BMP180;9234;49.344;11.120;2023-05-07T13:25:15;97525.00;;;31.10
18219;BMP180;9234;49.344;11.120;2023-05-07T13:27:43;97513.00;;;30.70
18219;BMP180;9234;49.344;11.120;2023-05-07T13:30:14;97517.00;;;30.50
18219;BMP180;9234;49.344;11.120;2023-05-07T13:32:42;97516.00;;;30.40
18219;BMP180;9234;49.344;11.120;2023-05-07T13:35:10;97513.00;;;30.40
18219;BMP180;9234;49.344;11.120;2023-05-07T13:37:40;97504.00;;;30.70
18219;BMP180;9234;49.344;11.120;2023-05-07T13:40:10;97517.00;;;31.20
18219;BMP180;9234;49.344;11.120;2023-05-07T13:42:39;97504.00;;;31.30
18219;BMP180;9234;49.344;11.120;2023-05-07T13:45:09;97499.00;;;31.30
18219;BMP180;9234;49.344;11.120;2023-05-07T13:47:40;97505.00;;;31.30
18219;BMP180;9234;49.344;11.120;2023-05-07T13:50:10;97504.00;;;31.50
18219;BMP180;9234;49.344;11.120;2023-05-07T13:52:42;97516.00;;;32.00
18219;BMP180;9234;49.344;11.120;2023-05-07T13:55:13;97513.00;;;32.20
18219;BMP180;9234;49.344;11.120;2023-05-07T13:57:41;97512.00;;;32.00
18219;BMP180;9234;49.344;11.120;2023-05-07T14:00:11;97500.00;;;31.60
18219;BMP180;9234;49.344;11.120;2023-05-07T14:02:42;97500.00;;;31.20
18219;BMP180;9234;49.344;11.120;2023-05-07T14:05:11;97493.00;;;31.10
18219;BMP180;9234;49.344;11.120;2023-05-07T14:07:41;97489.00;;;31.30
18219;BMP180;9234;49.344;11.120;2023-05-07T14:10:10;97490.00;;;31.20
18219;BMP180;9234;49.344;11.120;2023-05-07T14:12:40;97496.00;;;31.10
18219;BMP180;9234;49.344;11.120;2023-05-07T14:15:10;97491.00;;;30.90
18219;BMP180;9234;49.344;11.120;2023-05-07T14:17:38;97494.00;;;30.80
18219;BMP180;9234;49.344;11.120;2023-05-07T14:20:08;97488.00;;;30.70
18219;BMP180;9234;49.344;11.120;2023-05-07T14:22:37;97482.00;;;30.70
18219;BMP180;9234;49.344;11.120;2023-05-07T14:25:10;97488.00;;;30.90
18219;BMP180;9234;49.344;11.120;2023-05-07T14:27:38;97485.00;;;31.30
18219;BMP180;9234;49.344;11.120;2023-05-07T14:30:08;97480.00;;;31.90
18219;BMP180;9234;49.344;11.120;2023-05-07T14:32:36;97475.00;;;32.40